sensor_id;sensor_type;location;lat;lon;timestamp;temperature;humidity
35240;DHT22;21376;50.954;4.716;2022-07-11T00:01:13;16.10;99.90
35240;DHT22;21376;50.954;4.716;2022-07-11T00:03:40;16.10;99.90
35240;DHT22;21376;50.954;4.716;2022-07-11T00:09:57;16.10;99.90
35240;DHT22;21376;50.954;4.716;2022-07-11T00:15:48;15.90;99.90
35240;DHT22;21376;50.954;4.716;2022-07-11T00:18:17;15.80;99.90
35240;DHT22;21376;50.954;4.716;2022-07-11T00:20:46;15.80;99.90
35240;DHT22;21376;50.954;4.716;2022-07-11T00:23:14;15.80;99.90
35240;DHT22;21376;50.954;4.716;2022-07-11T00:25:41;15.80;99.90
35240;DHT22;21376;50.954;4.716;2022-07-11T00:28:10;15.80;99.90
35240;DHT22;21376;50.954;4.716;2022-07-11T00:30:38;15.60;99.90
35240;DHT22;21376;50.954;4.716;2022-07-11T00:33:08;15.50;99.90
35240;DHT22;21376;50.954;4.716;2022-07-11T00:35:37;15.50;99.90
35240;DHT22;21376;50.954;4.716;2022-07-11T00:38:04;15.60;99.90
35240;DHT22;21376;50.954;4.716;2022-07-11T00:40:33;15.60;99.90
35240;DHT22;21376;50.954;4.716;2022-07-11T00:43:05;15.60;99.90
35240;DHT22;21376;50.954;4.716;2022-07-11T00:45:34;15.60;99.90
35240;DHT22;21376;50.954;4.716;2022-07-11T00:48:00;15.50;99.90
35240;DHT22;21376;50.954;4.716;2022-07-11T00:50:29;15.50;99.90
35240;DHT22;21376;50.954;4.716;2022-07-11T00:52:55;15.50;99.90
35240;DHT22;21376;50.954;4.716;2022-07-11T00:55:26;15.40;99.90
35240;DHT22;21376;50.954;4.716;2022-07-11T00:57:58;15.40;99.90
35240;DHT22;21376;50.954;4.716;2022-07-11T01:00:26;15.50;99.90
35240;DHT22;21376;50.954;4.716;2022-07-11T01:02:52;15.30;99.90
35240;DHT22;21376;50.954;4.716;2022-07-11T01:05:21;15.40;99.90
35240;DHT22;21376;50.954;4.716;2022-07-11T01:08:10;15.30;99.90
35240;DHT22;21376;50.954;4.716;2022-07-11T01:10:39;15.30;99.90
35240;DHT22;21376;50.954;4.716;2022-07-11T01:13:05;15.10;99.90
35240;DHT22;21376;50.954;4.716;2022-07-11T01:15:36;15.20;99.90
35240;DHT22;21376;50.954;4.716;2022-07-11T01:18:05;15.10;99.90
35240;DHT22;21376;50.954;4.716;2022-07-11T01:20:34;15.10;99.90
35240;DHT22;21376;50.954;4.716;2022-07-11T01:26:09;15.00;99.90
35240;DHT22;21376;50.954;4.716;2022-07-11T01:28:53;15.10;99.90
35240;DHT22;21376;50.954;4.716;2022-07-11T01:31:25;15.00;99.90
35240;DHT22;21376;50.954;4.716;2022-07-11T01:37:05;14.90;99.90
35240;DHT22;21376;50.954;4.716;2022-07-11T01:39:34;14.90;99.90
35240;DHT22;21376;50.954;4.716;2022-07-11T01:42:02;14.90;99.90
35240;DHT22;21376;50.954;4.716;2022-07-11T01:47:48;14.80;99.90
35240;DHT22;21376;50.954;4.716;2022-07-11T01:50:16;14.70;99.90
35240;DHT22;21376;50.954;4.716;2022-07-11T01:52:45;14.70;99.90
35240;DHT22;21376;50.954;4.716;2022-07-11T01:55:16;14.60;99.90
35240;DHT22;21376;50.954;4.716;2022-07-11T01:57:45;14.70;99.90
35240;DHT22;21376;50.954;4.716;2022-07-11T02:03:47;14.70;99.90
35240;DHT22;21376;50.954;4.716;2022-07-11T02:06:16;14.70;99.90
35240;DHT22;21376;50.954;4.716;2022-07-11T02:08:45;14.60;99.90
35240;DHT22;21376;50.954;4.716;2022-07-11T02:11:14;14.50;99.90
35240;DHT22;21376;50.954;4.716;2022-07-11T02:13:43;14.40;99.90
35240;DHT22;21376;50.954;4.716;2022-07-11T02:16:12;14.40;99.90
35240;DHT22;21376;50.954;4.716;2022-07-11T02:18:38;14.40;99.90
35240;DHT22;21376;50.954;4.716;2022-07-11T02:21:07;14.40;99.90
35240;DHT22;21376;50.954;4.716;2022-07-11T02:23:37;14.50;99.90
35240;DHT22;21376;50.954;4.716;2022-07-11T02:26:07;14.40;99.90
35240;DHT22;21376;50.954;4.716;2022-07-11T02:28:35;14.40;99.90
35240;DHT22;21376;50.954;4.716;2022-07-11T02:37:53;14.50;99.90
35240;DHT22;21376;50.954;4.716;2022-07-11T02:40:19;14.50;99.90
35240;DHT22;21376;50.954;4.716;2022-07-11T02:42:48;14.50;99.90
35240;DHT22;21376;50.954;4.716;2022-07-11T02:45:15;14.40;99.90
35240;DHT22;21376;50.954;4.716;2022-07-11T02:47:41;14.50;99.90
35240;DHT22;21376;50.954;4.716;2022-07-11T02:50:09;14.50;99.90
35240;DHT22;21376;50.954;4.716;2022-07-11T02:52:40;14.40;99.90
35240;DHT22;21376;50.954;4.716;2022-07-11T02:55:09;14.30;99.90
35240;DHT22;21376;50.954;4.716;2022-07-11T02:57:38;14.40;99.90
35240;DHT22;21376;50.954;4.716;2022-07-11T03:00:08;14.30;99.90
35240;DHT22;21376;50.954;4.716;2022-07-11T03:02:48;14.30;99.90
35240;DHT22;21376;50.954;4.716;2022-07-11T03:05:16;14.20;99.90
35240;DHT22;21376;50.954;4.716;2022-07-11T03:07:43;13.90;99.90
35240;DHT22;21376;50.954;4.716;2022-07-11T03:10:15;14.10;99.90
35240;DHT22;21376;50.954;4.716;2022-07-11T03:12:44;14.00;99.90
35240;DHT22;21376;50.954;4.716;2022-07-11T03:15:13;14.10;99.90
35240;DHT22;21376;50.954;4.716;2022-07-11T03:17:42;14.00;99.90
35240;DHT22;21376;50.954;4.716;2022-07-11T03:20:12;14.00;99.90
35240;DHT22;21376;50.954;4.716;2022-07-11T03:22:39;13.90;99.90
35240;DHT22;21376;50.954;4.716;2022-07-11T03:25:24;14.00;99.90
35240;DHT22;21376;50.954;4.716;2022-07-11T03:27:56;14.00;99.90
35240;DHT22;21376;50.954;4.716;2022-07-11T03:30:25;13.80;99.90
35240;DHT22;21376;50.954;4.716;2022-07-11T03:32:54;13.90;99.90
35240;DHT22;21376;50.954;4.716;2022-07-11T03:35:20;14.00;99.90
35240;DHT22;21376;50.954;4.716;2022-07-11T03:38:11;14.00;99.90
35240;DHT22;21376;50.954;4.716;2022-07-11T03:40:43;14.10;99.90
35240;DHT22;21376;50.954;4.716;2022-07-11T03:43:28;14.10;99.90
35240;DHT22;21376;50.954;4.716;2022-07-11T03:45:57;14.20;99.90
35240;DHT22;21376;50.954;4.716;2022-07-11T03:48:23;14.30;99.90
35240;DHT22;21376;50.954;4.716;2022-07-11T03:51:12;14.30;99.90
35240;DHT22;21376;50.954;4.716;2022-07-11T03:53:55;14.40;99.90
35240;DHT22;21376;50.954;4.716;2022-07-11T03:56:24;14.40;99.90
35240;DHT22;21376;50.954;4.716;2022-07-11T03:58:53;14.50;99.90
35240;DHT22;21376;50.954;4.716;2022-07-11T04:01:21;14.60;99.90
35240;DHT22;21376;50.954;4.716;2022-07-11T04:03:47;14.70;99.90
35240;DHT22;21376;50.954;4.716;2022-07-11T04:06:17;14.60;99.90
35240;DHT22;21376;50.954;4.716;2022-07-11T04:08:43;14.70;99.90
35240;DHT22;21376;50.954;4.716;2022-07-11T04:11:12;14.70;99.90
35240;DHT22;21376;50.954;4.716;2022-07-11T04:13:41;14.90;99.90
35240;DHT22;21376;50.954;4.716;2022-07-11T04:16:06;15.00;99.90
35240;DHT22;21376;50.954;4.716;2022-07-11T04:18:32;14.90;99.90
35240;DHT22;21376;50.954;4.716;2022-07-11T04:21:01;14.80;99.90
35240;DHT22;21376;50.954;4.716;2022-07-11T04:23:28;14.90;99.90
35240;DHT22;21376;50.954;4.716;2022-07-11T04:25:59;14.90;99.90
35240;DHT22;21376;50.954;4.716;2022-07-11T04:31:51;14.70;99.90
35240;DHT22;21376;50.954;4.716;2022-07-11T04:34:20;14.90;99.90
35240;DHT22;21376;50.954;4.716;2022-07-11T04:36:48;15.10;99.90
35240;DHT22;21376;50.954;4.716;2022-07-11T04:39:17;15.30;99.90
35240;DHT22;21376;50.954;4.716;2022-07-11T04:41:45;15.30;99.90
35240;DHT22;21376;50.954;4.716;2022-07-11T04:47:41;16.70;99.90
35240;DHT22;21376;50.954;4.716;2022-07-11T04:50:31;18.80;99.90
35240;DHT22;21376;50.954;4.716;2022-07-11T04:53:06;20.60;99.90
35240;DHT22;21376;50.954;4.716;2022-07-11T04:55:31;22.10;99.90
35240;DHT22;21376;50.954;4.716;2022-07-11T04:58:08;22.20;99.90
35240;DHT22;21376;50.954;4.716;2022-07-11T05:00:36;21.20;99.90
35240;DHT22;21376;50.954;4.716;2022-07-11T05:03:11;20.30;99.90
35240;DHT22;21376;50.954;4.716;2022-07-11T05:05:40;19.50;99.90
35240;DHT22;21376;50.954;4.716;2022-07-11T05:08:11;19.10;99.90
35240;DHT22;21376;50.954;4.716;2022-07-11T05:10:40;18.90;99.90
35240;DHT22;21376;50.954;4.716;2022-07-11T05:13:13;20.00;99.90
35240;DHT22;21376;50.954;4.716;2022-07-11T05:15:56;21.60;99.90
35240;DHT22;21376;50.954;4.716;2022-07-11T05:18:25;22.40;99.90
35240;DHT22;21376;50.954;4.716;2022-07-11T05:20:54;22.20;99.90
35240;DHT22;21376;50.954;4.716;2022-07-11T05:23:24;23.60;99.90
35240;DHT22;21376;50.954;4.716;2022-07-11T05:25:52;25.30;99.90
35240;DHT22;21376;50.954;4.716;2022-07-11T05:28:20;26.60;99.90
35240;DHT22;21376;50.954;4.716;2022-07-11T05:30:49;27.70;99.90
35240;DHT22;21376;50.954;4.716;2022-07-11T05:33:18;28.50;99.90
35240;DHT22;21376;50.954;4.716;2022-07-11T05:35:44;29.10;99.80
35240;DHT22;21376;50.954;4.716;2022-07-11T05:38:13;29.70;98.20
35240;DHT22;21376;50.954;4.716;2022-07-11T05:40:41;30.20;96.70
35240;DHT22;21376;50.954;4.716;2022-07-11T05:43:13;30.80;95.40
35240;DHT22;21376;50.954;4.716;2022-07-11T05:45:47;31.00;94.40
35240;DHT22;21376;50.954;4.716;2022-07-11T05:48:28;31.40;93.40
35240;DHT22;21376;50.954;4.716;2022-07-11T05:50:57;32.00;91.80
35240;DHT22;21376;50.954;4.716;2022-07-11T05:53:26;32.50;90.40
35240;DHT22;21376;50.954;4.716;2022-07-11T05:55:54;33.10;88.60
35240;DHT22;21376;50.954;4.716;2022-07-11T05:58:23;33.10;85.60
35240;DHT22;21376;50.954;4.716;2022-07-11T06:01:06;33.30;84.50
35240;DHT22;21376;50.954;4.716;2022-07-11T06:03:41;33.30;82.70
35240;DHT22;21376;50.954;4.716;2022-07-11T06:06:08;32.60;83.40
35240;DHT22;21376;50.954;4.716;2022-07-11T06:08:37;32.20;83.60
35240;DHT22;21376;50.954;4.716;2022-07-11T06:11:12;31.10;87.60
35240;DHT22;21376;50.954;4.716;2022-07-11T06:13:43;29.80;90.30
35240;DHT22;21376;50.954;4.716;2022-07-11T06:16:17;29.40;91.10
35240;DHT22;21376;50.954;4.716;2022-07-11T06:18:44;30.20;90.60
35240;DHT22;21376;50.954;4.716;2022-07-11T06:21:13;30.50;90.80
35240;DHT22;21376;50.954;4.716;2022-07-11T06:23:42;31.60;88.40
35240;DHT22;21376;50.954;4.716;2022-07-11T06:26:11;31.80;87.50
35240;DHT22;21376;50.954;4.716;2022-07-11T06:28:40;32.10;86.30
35240;DHT22;21376;50.954;4.716;2022-07-11T06:31:09;33.60;82.80
35240;DHT22;21376;50.954;4.716;2022-07-11T06:33:36;33.40;82.00
35240;DHT22;21376;50.954;4.716;2022-07-11T06:40:52;32.70;82.00
35240;DHT22;21376;50.954;4.716;2022-07-11T06:43:19;33.10;81.30
35240;DHT22;21376;50.954;4.716;2022-07-11T06:45:46;33.50;79.80
35240;DHT22;21376;50.954;4.716;2022-07-11T06:48:15;34.00;80.00
35240;DHT22;21376;50.954;4.716;2022-07-11T06:50:41;34.90;75.80
35240;DHT22;21376;50.954;4.716;2022-07-11T06:53:10;35.30;73.90
35240;DHT22;21376;50.954;4.716;2022-07-11T06:55:36;36.60;71.90
35240;DHT22;21376;50.954;4.716;2022-07-11T06:58:02;36.00;71.20
35240;DHT22;21376;50.954;4.716;2022-07-11T07:00:31;35.90;70.10
35240;DHT22;21376;50.954;4.716;2022-07-11T07:03:00;35.30;71.00
35240;DHT22;21376;50.954;4.716;2022-07-11T07:05:29;33.20;74.80
35240;DHT22;21376;50.954;4.716;2022-07-11T07:07:56;30.80;79.80
35240;DHT22;21376;50.954;4.716;2022-07-11T07:10:40;29.20;84.80
35240;DHT22;21376;50.954;4.716;2022-07-11T07:13:06;28.50;88.20
35240;DHT22;21376;50.954;4.716;2022-07-11T07:15:35;27.20;91.30
35240;DHT22;21376;50.954;4.716;2022-07-11T07:18:13;26.40;93.20
35240;DHT22;21376;50.954;4.716;2022-07-11T07:21:09;26.10;93.80
35240;DHT22;21376;50.954;4.716;2022-07-11T07:23:38;25.70;94.40
35240;DHT22;21376;50.954;4.716;2022-07-11T07:26:04;26.40;95.10
35240;DHT22;21376;50.954;4.716;2022-07-11T07:28:36;29.60;92.40
35240;DHT22;21376;50.954;4.716;2022-07-11T07:31:12;32.40;84.70
35240;DHT22;21376;50.954;4.716;2022-07-11T07:33:38;31.90;82.40
35240;DHT22;21376;50.954;4.716;2022-07-11T07:36:04;31.40;81.40
35240;DHT22;21376;50.954;4.716;2022-07-11T07:38:30;30.20;86.00
35240;DHT22;21376;50.954;4.716;2022-07-11T07:52:42;29.70;92.30
35240;DHT22;21376;50.954;4.716;2022-07-11T07:55:08;32.80;86.90
35240;DHT22;21376;50.954;4.716;2022-07-11T07:57:56;35.00;75.70
35240;DHT22;21376;50.954;4.716;2022-07-11T08:00:24;37.40;74.80
35240;DHT22;21376;50.954;4.716;2022-07-11T08:03:22;37.90;67.80
35240;DHT22;21376;50.954;4.716;2022-07-11T08:05:51;36.40;67.80
35240;DHT22;21376;50.954;4.716;2022-07-11T08:08:19;35.10;73.70
35240;DHT22;21376;50.954;4.716;2022-07-11T08:10:46;36.00;71.10
35240;DHT22;21376;50.954;4.716;2022-07-11T08:13:11;36.30;68.80
35240;DHT22;21376;50.954;4.716;2022-07-11T08:15:43;35.60;69.80
35240;DHT22;21376;50.954;4.716;2022-07-11T08:18:15;35.20;71.40
35240;DHT22;21376;50.954;4.716;2022-07-11T08:20:41;34.60;71.20
35240;DHT22;21376;50.954;4.716;2022-07-11T08:23:10;33.60;71.80
35240;DHT22;21376;50.954;4.716;2022-07-11T08:25:40;31.80;75.40
35240;DHT22;21376;50.954;4.716;2022-07-11T08:28:09;30.20;80.80
35240;DHT22;21376;50.954;4.716;2022-07-11T08:30:40;29.40;85.40
35240;DHT22;21376;50.954;4.716;2022-07-11T08:33:16;28.70;85.50
35240;DHT22;21376;50.954;4.716;2022-07-11T08:35:49;28.40;87.40
35240;DHT22;21376;50.954;4.716;2022-07-11T08:38:18;28.20;89.90
35240;DHT22;21376;50.954;4.716;2022-07-11T08:40:49;28.00;90.00
35240;DHT22;21376;50.954;4.716;2022-07-11T08:43:17;28.10;90.10
35240;DHT22;21376;50.954;4.716;2022-07-11T08:45:43;28.40;89.90
35240;DHT22;21376;50.954;4.716;2022-07-11T08:48:12;28.70;89.70
35240;DHT22;21376;50.954;4.716;2022-07-11T08:50:38;28.50;89.00
35240;DHT22;21376;50.954;4.716;2022-07-11T08:53:05;29.70;87.20
35240;DHT22;21376;50.954;4.716;2022-07-11T08:55:33;29.90;85.60
35240;DHT22;21376;50.954;4.716;2022-07-11T08:58:03;29.50;88.50
35240;DHT22;21376;50.954;4.716;2022-07-11T09:00:35;28.70;89.40
35240;DHT22;21376;50.954;4.716;2022-07-11T09:03:03;28.00;89.10
35240;DHT22;21376;50.954;4.716;2022-07-11T09:05:33;28.10;90.30
35240;DHT22;21376;50.954;4.716;2022-07-11T09:08:02;28.00;90.60
35240;DHT22;21376;50.954;4.716;2022-07-11T09:10:30;28.10;90.90
35240;DHT22;21376;50.954;4.716;2022-07-11T09:18:00;32.80;81.40
35240;DHT22;21376;50.954;4.716;2022-07-11T09:20:27;32.20;83.20
35240;DHT22;21376;50.954;4.716;2022-07-11T09:23:20;35.30;76.10
35240;DHT22;21376;50.954;4.716;2022-07-11T09:26:05;36.00;72.10
35240;DHT22;21376;50.954;4.716;2022-07-11T09:28:34;36.50;70.60
35240;DHT22;21376;50.954;4.716;2022-07-11T09:31:15;35.60;68.50
35240;DHT22;21376;50.954;4.716;2022-07-11T09:33:57;34.30;72.90
35240;DHT22;21376;50.954;4.716;2022-07-11T09:36:49;33.60;73.60
35240;DHT22;21376;50.954;4.716;2022-07-11T09:39:28;35.00;73.50
35240;DHT22;21376;50.954;4.716;2022-07-11T09:41:55;36.60;69.60
35240;DHT22;21376;50.954;4.716;2022-07-11T09:44:28;37.70;67.10
35240;DHT22;21376;50.954;4.716;2022-07-11T09:46:55;39.20;62.60
35240;DHT22;21376;50.954;4.716;2022-07-11T09:49:39;40.00;62.90
35240;DHT22;21376;50.954;4.716;2022-07-11T09:52:11;40.90;58.90
35240;DHT22;21376;50.954;4.716;2022-07-11T09:54:57;41.10;56.80
35240;DHT22;21376;50.954;4.716;2022-07-11T09:57:38;39.70;59.30
35240;DHT22;21376;50.954;4.716;2022-07-11T10:00:08;39.10;59.60
35240;DHT22;21376;50.954;4.716;2022-07-11T10:02:38;39.30;58.40
35240;DHT22;21376;50.954;4.716;2022-07-11T10:05:06;39.40;57.30
35240;DHT22;21376;50.954;4.716;2022-07-11T10:07:34;36.10;62.50
35240;DHT22;21376;50.954;4.716;2022-07-11T10:10:02;35.70;64.60
35240;DHT22;21376;50.954;4.716;2022-07-11T10:12:28;36.70;66.80
35240;DHT22;21376;50.954;4.716;2022-07-11T10:15:05;38.40;64.00
35240;DHT22;21376;50.954;4.716;2022-07-11T10:21:01;39.80;59.00
35240;DHT22;21376;50.954;4.716;2022-07-11T10:27:14;40.60;55.90
35240;DHT22;21376;50.954;4.716;2022-07-11T10:29:51;38.10;58.30
35240;DHT22;21376;50.954;4.716;2022-07-11T10:32:18;38.80;59.80
35240;DHT22;21376;50.954;4.716;2022-07-11T10:35:11;39.80;57.10
35240;DHT22;21376;50.954;4.716;2022-07-11T10:37:53;38.30;59.70
35240;DHT22;21376;50.954;4.716;2022-07-11T10:46:05;33.60;69.00
35240;DHT22;21376;50.954;4.716;2022-07-11T10:51:34;31.90;71.50
35240;DHT22;21376;50.954;4.716;2022-07-11T10:57:26;32.20;71.20
35240;DHT22;21376;50.954;4.716;2022-07-11T11:00:19;32.80;71.20
35240;DHT22;21376;50.954;4.716;2022-07-11T11:03:11;34.70;69.30
35240;DHT22;21376;50.954;4.716;2022-07-11T11:05:53;35.60;66.00
35240;DHT22;21376;50.954;4.716;2022-07-11T11:11:33;35.90;64.00
35240;DHT22;21376;50.954;4.716;2022-07-11T11:14:24;37.40;61.20
35240;DHT22;21376;50.954;4.716;2022-07-11T11:16:54;36.80;61.60
35240;DHT22;21376;50.954;4.716;2022-07-11T11:19:54;36.00;62.50
35240;DHT22;21376;50.954;4.716;2022-07-11T11:22:22;35.20;64.70
35240;DHT22;21376;50.954;4.716;2022-07-11T11:24:53;35.80;62.80
35240;DHT22;21376;50.954;4.716;2022-07-11T11:27:22;34.30;65.60
35240;DHT22;21376;50.954;4.716;2022-07-11T11:29:50;35.00;64.60
35240;DHT22;21376;50.954;4.716;2022-07-11T11:32:20;35.70;62.60
35240;DHT22;21376;50.954;4.716;2022-07-11T11:34:47;37.40;60.20
35240;DHT22;21376;50.954;4.716;2022-07-11T11:37:15;37.70;61.20
35240;DHT22;21376;50.954;4.716;2022-07-11T11:39:44;36.90;59.20
35240;DHT22;21376;50.954;4.716;2022-07-11T11:42:15;37.00;60.10
35240;DHT22;21376;50.954;4.716;2022-07-11T11:44:57;37.30;60.90
35240;DHT22;21376;50.954;4.716;2022-07-11T11:47:28;36.50;60.00
35240;DHT22;21376;50.954;4.716;2022-07-11T11:49:58;37.70;58.70
35240;DHT22;21376;50.954;4.716;2022-07-11T11:52:24;37.40;61.30
35240;DHT22;21376;50.954;4.716;2022-07-11T11:54:57;38.00;60.10
35240;DHT22;21376;50.954;4.716;2022-07-11T11:57:28;38.90;58.10
35240;DHT22;21376;50.954;4.716;2022-07-11T11:59:54;39.20;57.60
35240;DHT22;21376;50.954;4.716;2022-07-11T12:02:27;39.30;58.00
35240;DHT22;21376;50.954;4.716;2022-07-11T12:04:54;39.00;57.20
35240;DHT22;21376;50.954;4.716;2022-07-11T12:07:29;38.60;58.60
35240;DHT22;21376;50.954;4.716;2022-07-11T12:09:58;39.50;57.30
35240;DHT22;21376;50.954;4.716;2022-07-11T12:12:30;40.00;55.90
35240;DHT22;21376;50.954;4.716;2022-07-11T12:17:56;39.20;56.50
35240;DHT22;21376;50.954;4.716;2022-07-11T12:20:43;38.60;58.10
35240;DHT22;21376;50.954;4.716;2022-07-11T12:23:16;37.00;60.30
35240;DHT22;21376;50.954;4.716;2022-07-11T12:25:47;38.40;59.20
35240;DHT22;21376;50.954;4.716;2022-07-11T12:28:19;37.70;57.80
35240;DHT22;21376;50.954;4.716;2022-07-11T12:30:45;37.20;62.40
35240;DHT22;21376;50.954;4.716;2022-07-11T12:33:14;36.90;60.50
35240;DHT22;21376;50.954;4.716;2022-07-11T12:36:00;34.80;63.50
35240;DHT22;21376;50.954;4.716;2022-07-11T12:38:46;34.50;67.70
35240;DHT22;21376;50.954;4.716;2022-07-11T12:41:13;34.60;64.30
35240;DHT22;21376;50.954;4.716;2022-07-11T12:43:52;34.20;63.80
35240;DHT22;21376;50.954;4.716;2022-07-11T12:46:40;33.50;65.40
35240;DHT22;21376;50.954;4.716;2022-07-11T12:49:08;34.20;66.00
35240;DHT22;21376;50.954;4.716;2022-07-11T12:51:41;34.90;63.10
35240;DHT22;21376;50.954;4.716;2022-07-11T12:54:14;36.10;63.50
35240;DHT22;21376;50.954;4.716;2022-07-11T12:56:53;32.80;66.00
35240;DHT22;21376;50.954;4.716;2022-07-11T12:59:23;34.70;66.40
35240;DHT22;21376;50.954;4.716;2022-07-11T13:02:09;35.40;64.40
35240;DHT22;21376;50.954;4.716;2022-07-11T13:04:53;35.30;64.30
35240;DHT22;21376;50.954;4.716;2022-07-11T13:10:57;32.80;68.50
35240;DHT22;21376;50.954;4.716;2022-07-11T13:13:26;32.10;70.90
35240;DHT22;21376;50.954;4.716;2022-07-11T13:15:53;32.00;74.10
35240;DHT22;21376;50.954;4.716;2022-07-11T13:18:20;33.10;69.60
35240;DHT22;21376;50.954;4.716;2022-07-11T13:20:46;34.70;66.00
35240;DHT22;21376;50.954;4.716;2022-07-11T13:23:12;34.90;65.70
35240;DHT22;21376;50.954;4.716;2022-07-11T13:25:39;34.70;65.00
35240;DHT22;21376;50.954;4.716;2022-07-11T13:28:05;34.70;64.30
35240;DHT22;21376;50.954;4.716;2022-07-11T13:30:36;33.60;66.00
35240;DHT22;21376;50.954;4.716;2022-07-11T13:33:04;32.70;68.20
35240;DHT22;21376;50.954;4.716;2022-07-11T13:35:35;31.40;71.10
35240;DHT22;21376;50.954;4.716;2022-07-11T13:38:03;30.80;72.50
35240;DHT22;21376;50.954;4.716;2022-07-11T13:40:32;31.00;74.40
35240;DHT22;21376;50.954;4.716;2022-07-11T13:42:59;30.50;74.40
35240;DHT22;21376;50.954;4.716;2022-07-11T13:45:26;29.50;76.00
35240;DHT22;21376;50.954;4.716;2022-07-11T13:47:53;28.90;78.00
35240;DHT22;21376;50.954;4.716;2022-07-11T13:50:19;28.50;78.80
35240;DHT22;21376;50.954;4.716;2022-07-11T13:52:51;28.00;80.80
35240;DHT22;21376;50.954;4.716;2022-07-11T13:55:20;27.90;80.00
35240;DHT22;21376;50.954;4.716;2022-07-11T13:57:50;27.90;81.10
35240;DHT22;21376;50.954;4.716;2022-07-11T14:00:21;28.20;80.10
35240;DHT22;21376;50.954;4.716;2022-07-11T14:02:53;27.80;82.50
35240;DHT22;21376;50.954;4.716;2022-07-11T14:05:32;27.70;83.00
35240;DHT22;21376;50.954;4.716;2022-07-11T14:11:26;28.10;81.50
35240;DHT22;21376;50.954;4.716;2022-07-11T14:13:52;27.90;82.30
35240;DHT22;21376;50.954;4.716;2022-07-11T14:16:21;26.80;86.20
35240;DHT22;21376;50.954;4.716;2022-07-11T14:18:49;26.90;87.30
35240;DHT22;21376;50.954;4.716;2022-07-11T14:21:26;27.10;85.80
35240;DHT22;21376;50.954;4.716;2022-07-11T14:23:53;27.20;84.50
35240;DHT22;21376;50.954;4.716;2022-07-11T14:26:22;27.20;85.00
35240;DHT22;21376;50.954;4.716;2022-07-11T14:28:51;27.40;86.00
35240;DHT22;21376;50.954;4.716;2022-07-11T14:31:23;27.00;83.50
35240;DHT22;21376;50.954;4.716;2022-07-11T14:33:53;27.10;84.00
35240;DHT22;21376;50.954;4.716;2022-07-11T14:36:25;27.20;84.30
35240;DHT22;21376;50.954;4.716;2022-07-11T14:38:55;27.50;83.20
35240;DHT22;21376;50.954;4.716;2022-07-11T14:41:26;27.50;88.00
35240;DHT22;21376;50.954;4.716;2022-07-11T14:43:55;27.70;84.40
35240;DHT22;21376;50.954;4.716;2022-07-11T14:46:25;27.90;82.50
35240;DHT22;21376;50.954;4.716;2022-07-11T14:48:50;27.70;82.50
35240;DHT22;21376;50.954;4.716;2022-07-11T14:51:16;27.00;82.80
35240;DHT22;21376;50.954;4.716;2022-07-11T14:53:42;27.20;82.80
35240;DHT22;21376;50.954;4.716;2022-07-11T14:56:14;27.30;82.60
35240;DHT22;21376;50.954;4.716;2022-07-11T14:58:41;27.50;80.20
35240;DHT22;21376;50.954;4.716;2022-07-11T15:01:10;28.00;77.90
35240;DHT22;21376;50.954;4.716;2022-07-11T15:03:37;27.90;78.20
35240;DHT22;21376;50.954;4.716;2022-07-11T15:06:06;28.00;80.30
35240;DHT22;21376;50.954;4.716;2022-07-11T15:08:34;27.80;79.00
35240;DHT22;21376;50.954;4.716;2022-07-11T15:11:28;27.90;77.70
35240;DHT22;21376;50.954;4.716;2022-07-11T15:14:16;27.80;77.30
35240;DHT22;21376;50.954;4.716;2022-07-11T15:16:41;28.00;78.50
35240;DHT22;21376;50.954;4.716;2022-07-11T15:19:10;27.90;79.30
35240;DHT22;21376;50.954;4.716;2022-07-11T15:21:36;27.50;80.80
35240;DHT22;21376;50.954;4.716;2022-07-11T15:24:08;27.30;80.30
35240;DHT22;21376;50.954;4.716;2022-07-11T15:26:41;27.00;82.90
35240;DHT22;21376;50.954;4.716;2022-07-11T15:29:07;27.20;80.30
35240;DHT22;21376;50.954;4.716;2022-07-11T15:31:37;27.30;79.10
35240;DHT22;21376;50.954;4.716;2022-07-11T15:34:06;27.30;80.50
35240;DHT22;21376;50.954;4.716;2022-07-11T15:36:33;27.60;79.30
35240;DHT22;21376;50.954;4.716;2022-07-11T15:38:59;27.50;78.70
35240;DHT22;21376;50.954;4.716;2022-07-11T15:41:34;27.50;79.40
35240;DHT22;21376;50.954;4.716;2022-07-11T15:43:59;27.30;78.90
35240;DHT22;21376;50.954;4.716;2022-07-11T15:49:24;27.00;78.70
35240;DHT22;21376;50.954;4.716;2022-07-11T15:51:51;27.20;79.20
35240;DHT22;21376;50.954;4.716;2022-07-11T15:54:17;26.80;78.60
35240;DHT22;21376;50.954;4.716;2022-07-11T15:56:43;26.50;79.50
35240;DHT22;21376;50.954;4.716;2022-07-11T15:59:10;26.40;81.70
35240;DHT22;21376;50.954;4.716;2022-07-11T16:01:39;26.60;80.60
35240;DHT22;21376;50.954;4.716;2022-07-11T16:04:07;26.70;79.90
35240;DHT22;21376;50.954;4.716;2022-07-11T16:06:36;26.90;80.00
35240;DHT22;21376;50.954;4.716;2022-07-11T16:09:05;27.00;80.70
35240;DHT22;21376;50.954;4.716;2022-07-11T16:11:32;26.80;81.30
35240;DHT22;21376;50.954;4.716;2022-07-11T16:14:00;26.60;81.50
35240;DHT22;21376;50.954;4.716;2022-07-11T16:16:29;26.50;83.10
35240;DHT22;21376;50.954;4.716;2022-07-11T16:18:55;26.60;82.60
35240;DHT22;21376;50.954;4.716;2022-07-11T16:21:27;26.50;82.90
35240;DHT22;21376;50.954;4.716;2022-07-11T16:23:55;26.70;82.80
35240;DHT22;21376;50.954;4.716;2022-07-11T16:26:24;26.80;82.90
35240;DHT22;21376;50.954;4.716;2022-07-11T16:28:57;26.40;83.40
35240;DHT22;21376;50.954;4.716;2022-07-11T16:31:29;26.10;82.90
35240;DHT22;21376;50.954;4.716;2022-07-11T16:33:55;25.80;84.00
35240;DHT22;21376;50.954;4.716;2022-07-11T16:36:21;26.00;85.10
35240;DHT22;21376;50.954;4.716;2022-07-11T16:38:51;26.40;84.50
35240;DHT22;21376;50.954;4.716;2022-07-11T16:41:36;26.20;84.40
35240;DHT22;21376;50.954;4.716;2022-07-11T16:44:23;26.30;83.50
35240;DHT22;21376;50.954;4.716;2022-07-11T16:46:49;26.30;84.60
35240;DHT22;21376;50.954;4.716;2022-07-11T16:49:15;26.40;83.50
35240;DHT22;21376;50.954;4.716;2022-07-11T16:51:42;26.50;83.70
35240;DHT22;21376;50.954;4.716;2022-07-11T16:54:12;26.40;82.10
35240;DHT22;21376;50.954;4.716;2022-07-11T16:56:42;26.40;82.20
35240;DHT22;21376;50.954;4.716;2022-07-11T16:59:09;26.50;82.20
35240;DHT22;21376;50.954;4.716;2022-07-11T17:01:38;26.40;82.50
35240;DHT22;21376;50.954;4.716;2022-07-11T17:04:07;26.40;82.30
35240;DHT22;21376;50.954;4.716;2022-07-11T17:06:38;26.20;83.10
35240;DHT22;21376;50.954;4.716;2022-07-11T17:09:04;26.10;83.60
35240;DHT22;21376;50.954;4.716;2022-07-11T17:11:33;26.20;84.20
35240;DHT22;21376;50.954;4.716;2022-07-11T17:14:00;26.20;82.90
35240;DHT22;21376;50.954;4.716;2022-07-11T17:16:29;26.30;81.80
35240;DHT22;21376;50.954;4.716;2022-07-11T17:19:00;26.20;81.90
35240;DHT22;21376;50.954;4.716;2022-07-11T17:21:29;25.90;83.40
35240;DHT22;21376;50.954;4.716;2022-07-11T17:23:59;25.90;83.30